createdAt,value
2023-05-25T00:03:52.960Z,32.05
2023-05-25T00:08:55.426Z,32.22
2023-05-25T00:13:56.889Z,31.91
2023-05-25T00:18:58.349Z,32.10
2023-05-25T00:24:00.557Z,32.00
2023-05-25T00:29:02.001Z,32.10
2023-05-25T00:34:03.460Z,31.98
2023-05-25T00:39:05.983Z,32.00
2023-05-25T00:44:08.018Z,31.87
2023-05-25T00:49:09.442Z,31.86
2023-05-25T00:54:11.263Z,31.76
2023-05-25T00:59:15.598Z,31.74
2023-05-25T01:04:17.068Z,31.79
2023-05-25T01:09:18.936Z,31.40
2023-05-25T01:14:21.463Z,31.80
2023-05-25T01:19:22.906Z,31.47
2023-05-25T01:24:32.269Z,31.44
2023-05-25T01:29:34.561Z,31.47
2023-05-25T01:34:36.587Z,31.75
2023-05-25T01:39:38.008Z,31.27
2023-05-25T01:44:39.810Z,31.17
2023-05-25T01:49:49.983Z,31.36
2023-05-25T01:55:12.866Z,31.32
2023-05-25T02:00:14.478Z,31.19
2023-05-25T02:05:16.159Z,30.91
2023-05-25T02:10:17.642Z,30.81
2023-05-25T02:15:19.131Z,30.84
2023-05-25T02:20:20.618Z,30.72
2023-05-25T02:25:22.050Z,30.70
2023-05-25T02:30:23.542Z,30.69
2023-05-25T02:35:24.996Z,30.47
2023-05-25T02:40:26.453Z,30.47
2023-05-25T02:45:27.900Z,30.75
2023-05-25T02:50:29.318Z,30.24
2023-05-25T02:55:30.735Z,30.39
2023-05-25T03:00:32.226Z,30.28
2023-05-25T03:05:35.166Z,30.16
2023-05-25T03:10:36.608Z,30.21
2023-05-25T03:15:40.001Z,30.15
2023-05-25T03:20:41.606Z,30.31
2023-05-25T03:25:43.426Z,30.03
2023-05-25T03:30:45.850Z,30.03
2023-05-25T03:35:47.347Z,30.14
2023-05-25T03:40:48.824Z,30.04
2023-05-25T03:45:50.368Z,30.14
2023-05-25T03:50:51.903Z,30.05
2023-05-25T03:55:53.424Z,30.13
2023-05-25T04:00:56.189Z,30.05
2023-05-25T04:05:58.923Z,30.20
2023-05-25T04:11:00.429Z,30.06
2023-05-25T04:16:02.022Z,30.24
2023-05-25T04:21:03.634Z,30.27
2023-05-25T04:26:06.005Z,30.21
2023-05-25T04:31:07.937Z,30.27
2023-05-25T04:36:10.826Z,30.48
2023-05-25T04:41:12.240Z,30.38
2023-05-25T04:46:13.960Z,30.42
2023-05-25T04:51:16.088Z,30.56
2023-05-25T04:56:17.589Z,30.54
2023-05-25T05:01:20.518Z,30.67
2023-05-25T05:06:22.583Z,30.73
2023-05-25T05:11:24.016Z,30.94
2023-05-25T05:16:25.461Z,31.14
2023-05-25T05:21:26.988Z,31.17
2023-05-25T05:26:28.683Z,31.30
2023-05-25T05:31:31.487Z,31.61
2023-05-25T05:36:45.098Z,31.62
2023-05-25T05:41:54.551Z,31.88
2023-05-25T05:47:00.117Z,31.91
2023-05-25T05:52:02.977Z,32.05
2023-05-25T05:57:04.511Z,32.04
2023-05-25T06:02:07.399Z,32.24
2023-05-25T06:07:08.860Z,32.30
2023-05-25T06:12:10.374Z,32.15
2023-05-25T06:17:11.858Z,32.53
2023-05-25T06:22:13.355Z,32.88
2023-05-25T06:27:14.775Z,33.07
2023-05-25T06:32:16.567Z,32.96
2023-05-25T06:37:18.125Z,32.52
2023-05-25T06:42:19.563Z,32.55
2023-05-25T06:47:21.126Z,32.51
2023-05-25T06:52:22.655Z,32.48
2023-05-25T06:57:24.130Z,32.30
2023-05-25T07:02:25.621Z,32.58
2023-05-25T07:07:27.100Z,32.65
2023-05-25T07:12:28.514Z,32.50
2023-05-25T07:17:31.266Z,32.34
2023-05-25T07:22:32.850Z,32.33
2023-05-25T07:27:34.354Z,32.69
2023-05-25T07:32:35.961Z,32.54
2023-05-25T07:37:37.392Z,32.57
2023-05-25T07:42:38.879Z,32.81
2023-05-25T07:47:40.452Z,32.78
2023-05-25T07:52:42.119Z,32.40
2023-05-25T07:57:43.891Z,32.06
2023-05-25T08:02:45.548Z,31.59
2023-05-25T08:07:47.105Z,31.52
2023-05-25T08:12:50.647Z,31.43
2023-05-25T08:17:53.342Z,31.32
2023-05-25T08:22:54.874Z,31.52
2023-05-25T08:27:56.346Z,31.57
2023-05-25T08:32:57.877Z,31.53
2023-05-25T08:37:59.337Z,31.74
2023-05-25T08:43:00.796Z,31.83
2023-05-25T08:48:02.552Z,31.83
2023-05-25T08:53:05.638Z,31.52
2023-05-25T08:58:17.500Z,31.42
2023-05-25T09:03:19.090Z,31.68
2023-05-25T09:08:20.579Z,31.53
2023-05-25T09:13:23.117Z,31.63
2023-05-25T09:18:24.819Z,31.81
2023-05-25T09:23:26.352Z,31.66
2023-05-25T09:28:28.007Z,31.72
2023-05-25T09:33:29.544Z,32.12
2023-05-25T09:38:31.442Z,32.37
2023-05-25T09:48:41.882Z,32.91
2023-05-25T09:53:43.322Z,32.96
2023-05-25T09:58:45.341Z,33.18
2023-05-25T10:03:59.808Z,33.01
2023-05-25T10:09:06.403Z,33.43
2023-05-25T10:14:07.885Z,33.08
2023-05-25T10:19:21.892Z,33.21
2023-05-25T10:24:34.530Z,33.16
2023-05-25T10:29:36.022Z,33.42
2023-05-25T10:34:37.461Z,33.58
2023-05-25T10:39:38.891Z,33.44
2023-05-25T10:44:41.458Z,33.69
2023-05-25T10:50:38.720Z,33.41
2023-05-25T10:55:52.476Z,33.63
2023-05-25T11:01:06.856Z,33.73
2023-05-25T11:06:10.333Z,33.94
2023-05-25T11:11:11.777Z,33.66
2023-05-25T11:16:13.619Z,33.49
2023-05-25T11:21:27.250Z,33.38
2023-05-25T11:26:33.345Z,33.52
2023-05-25T11:31:40.610Z,33.61
2023-05-25T11:36:44.616Z,33.57
2023-05-25T11:41:55.424Z,33.32
2023-05-25T11:46:57.609Z,33.11
2023-05-25T11:51:59.246Z,32.76
2023-05-25T11:57:01.395Z,33.10
2023-05-25T12:02:03.412Z,33.12
2023-05-25T12:07:05.911Z,33.17
2023-05-25T12:12:07.414Z,32.96
2023-05-25T12:17:08.940Z,32.92
2023-05-25T12:22:11.555Z,32.71
2023-05-25T12:27:20.431Z,32.79
2023-05-25T12:32:21.909Z,32.75
2023-05-25T12:37:23.412Z,32.66
2023-05-25T12:42:27.560Z,32.38
2023-05-25T12:47:30.320Z,32.20
2023-05-25T12:52:36.694Z,32.48
2023-05-25T12:57:38.243Z,32.22
2023-05-25T13:02:44.232Z,32.17
2023-05-25T13:07:45.773Z,31.74
2023-05-25T13:12:47.695Z,31.43
2023-05-25T13:17:50.370Z,31.54
2023-05-25T13:22:52.527Z,31.32
2023-05-25T13:27:54.891Z,31.56
2023-05-25T13:32:56.387Z,31.58
2023-05-25T13:37:58.668Z,31.60
2023-05-25T13:43:00.129Z,31.75
2023-05-25T13:48:01.707Z,31.62
2023-05-25T13:53:03.242Z,31.80
2023-05-25T13:58:04.663Z,31.74
2023-05-25T14:03:06.837Z,31.81
2023-05-25T14:08:08.400Z,32.01
2023-05-25T14:13:09.901Z,31.90
2023-05-25T14:18:11.393Z,31.95
2023-05-25T14:23:15.110Z,31.94
2023-05-25T14:28:17.405Z,31.88
2023-05-25T14:33:19.089Z,32.00
2023-05-25T14:38:20.576Z,32.23
2023-05-25T14:43:22.011Z,32.09
2023-05-25T14:48:25.382Z,32.22
2023-05-25T14:53:27.138Z,32.54
2023-05-25T14:58:28.869Z,32.06
2023-05-25T15:03:30.480Z,31.73
2023-05-25T15:08:31.949Z,31.88
2023-05-25T15:13:33.420Z,31.63
2023-05-25T15:18:34.865Z,31.62
2023-05-25T15:23:36.511Z,31.64
2023-05-25T15:28:38.074Z,31.58
2023-05-25T15:33:51.991Z,31.79
2023-05-25T15:38:57.966Z,32.05
2023-05-25T15:44:01.077Z,32.17
2023-05-25T15:49:02.583Z,32.17
2023-05-25T15:54:04.031Z,32.20
2023-05-25T15:59:05.599Z,32.38
2023-05-25T16:04:07.166Z,32.46
2023-05-25T16:09:08.735Z,32.64
2023-05-25T16:14:10.257Z,32.51
2023-05-25T16:19:13.853Z,32.70
2023-05-25T16:24:15.772Z,32.63
2023-05-25T16:29:17.251Z,32.52
2023-05-25T16:34:18.690Z,32.60
2023-05-25T16:39:20.122Z,32.76
2023-05-25T16:44:21.550Z,32.93
2023-05-25T16:49:22.984Z,33.17
2023-05-25T16:54:24.401Z,33.04
2023-05-25T16:59:25.860Z,32.83
2023-05-25T17:04:27.325Z,32.82
2023-05-25T17:09:28.745Z,32.65
2023-05-25T17:14:30.280Z,32.71
2023-05-25T17:19:31.751Z,32.86
2023-05-25T17:24:33.200Z,32.71
2023-05-25T17:29:34.648Z,32.77
2023-05-25T17:34:36.089Z,32.64
2023-05-25T17:39:37.527Z,33.11
2023-05-25T17:44:41.375Z,33.02
2023-05-25T17:49:42.850Z,33.17
2023-05-25T17:54:44.277Z,33.11
2023-05-25T17:59:45.902Z,33.29
2023-05-25T18:04:47.373Z,33.34
2023-05-25T18:09:48.813Z,33.37
2023-05-25T18:14:50.650Z,33.30
2023-05-25T18:19:52.159Z,33.46
2023-05-25T18:24:53.586Z,33.34
2023-05-25T18:29:55.084Z,33.35
2023-05-25T18:34:57.336Z,33.74
2023-05-25T18:39:58.935Z,33.71
2023-05-25T18:45:01.304Z,33.96
2023-05-25T18:50:03.061Z,33.66
2023-05-25T18:55:05.792Z,33.90
2023-05-25T19:00:08.733Z,34.27
2023-05-25T19:05:14.995Z,34.39
2023-05-25T19:10:16.537Z,34.35
2023-05-25T19:15:18.090Z,34.47
2023-05-25T19:20:19.660Z,34.83
2023-05-25T19:25:21.186Z,34.67
2023-05-25T19:30:22.657Z,34.72
2023-05-25T19:35:24.077Z,35.14
2023-05-25T19:40:25.523Z,35.09
2023-05-25T19:45:27.015Z,35.35
2023-05-25T19:50:30.527Z,35.47
2023-05-25T19:55:32.170Z,35.52
2023-05-25T20:00:33.589Z,35.60
2023-05-25T20:05:35.063Z,35.84
2023-05-25T20:10:39.739Z,35.97
2023-05-25T20:15:41.267Z,36.09
2023-05-25T20:20:42.950Z,35.58
2023-05-25T20:25:44.570Z,35.56
2023-05-25T20:30:46.198Z,35.65
2023-05-25T20:35:49.658Z,35.91
2023-05-25T20:40:51.112Z,35.99
2023-05-25T20:45:52.612Z,35.70
2023-05-25T20:50:54.066Z,35.75
2023-05-25T20:55:56.910Z,35.82
2023-05-25T21:00:58.352Z,36.20
2023-05-25T21:05:59.788Z,35.95
2023-05-25T21:11:01.233Z,35.75
2023-05-25T21:16:02.720Z,35.83
2023-05-25T21:21:05.380Z,35.82
2023-05-25T21:26:06.895Z,36.12
2023-05-25T21:31:08.402Z,35.75
2023-05-25T21:36:09.845Z,36.18
2023-05-25T21:41:11.281Z,36.07
2023-05-25T21:46:12.706Z,35.86
2023-05-25T21:51:14.112Z,35.88
2023-05-25T21:56:15.564Z,35.93
2023-05-25T22:01:17.116Z,35.86
2023-05-25T22:06:18.591Z,35.88
2023-05-25T22:11:21.932Z,35.95
2023-05-25T22:16:23.409Z,35.83
2023-05-25T22:21:24.853Z,35.93
2023-05-25T22:26:27.384Z,35.70
2023-05-25T22:31:28.959Z,35.86
2023-05-25T22:36:30.603Z,35.75
2023-05-25T22:41:32.021Z,35.82
2023-05-25T22:46:33.490Z,35.83
2023-05-25T22:51:34.932Z,36.02
2023-05-25T22:56:38.857Z,36.00
2023-05-25T23:01:40.304Z,36.01
2023-05-25T23:06:41.892Z,36.04
2023-05-25T23:11:43.370Z,36.20
2023-05-25T23:16:48.256Z,36.31
2023-05-25T23:21:49.854Z,36.26
2023-05-25T23:26:51.666Z,36.25
2023-05-25T23:31:53.229Z,36.43
2023-05-25T23:36:54.764Z,36.37
2023-05-25T23:41:56.401Z,36.27
2023-05-25T23:46:57.833Z,36.44
2023-05-25T23:51:59.282Z,36.40
2023-05-25T23:57:01.091Z,36.54
